createdAt,value
2022-07-27T00:02:03.520Z,98954.16
2022-07-27T00:07:06.308Z,98954.25
2022-07-27T00:12:09.138Z,98947.69
2022-07-27T00:17:11.781Z,98952.56
2022-07-27T00:22:14.537Z,98947.31
2022-07-27T00:27:17.283Z,98959.72
2022-07-27T00:32:20.512Z,98954.47
2022-07-27T00:37:23.144Z,98960.06
2022-07-27T00:42:28.438Z,98963.28
2022-07-27T00:47:31.242Z,98964.47
2022-07-27T00:52:34.637Z,98962.50
2022-07-27T00:57:58.533Z,98959.03
2022-07-27T01:03:02.579Z,98963.34
2022-07-27T01:08:14.458Z,98969.28
2022-07-27T01:13:17.480Z,98967.19
2022-07-27T01:18:32.252Z,98962.50
2022-07-27T01:23:35.351Z,98971.41
2022-07-27T01:28:38.005Z,98967.75
2022-07-27T01:33:40.663Z,98966.44
2022-07-27T01:38:43.720Z,98968.69
2022-07-27T01:43:46.513Z,98967.78
2022-07-27T01:48:49.363Z,98975.66
2022-07-27T01:53:52.196Z,98974.72
2022-07-27T01:58:55.468Z,98968.38
2022-07-27T02:03:58.183Z,98949.56
2022-07-27T02:09:01.693Z,98951.22
2022-07-27T02:14:04.572Z,98960.38
2022-07-27T02:19:07.253Z,98958.22
2022-07-27T02:24:11.837Z,98944.44
2022-07-27T02:29:14.836Z,98954.69
2022-07-27T02:34:17.658Z,98954.09
2022-07-27T02:39:20.437Z,98933.84
2022-07-27T02:44:23.662Z,98936.41
2022-07-27T02:49:26.509Z,98934.69
2022-07-27T02:54:31.801Z,98919.84
2022-07-27T02:59:34.568Z,98923.66
2022-07-27T03:04:37.423Z,98921.91
2022-07-27T03:09:40.306Z,98932.47
2022-07-27T03:14:42.945Z,98938.63
2022-07-27T03:19:45.597Z,98924.91
2022-07-27T03:24:48.329Z,98925.78
2022-07-27T03:29:51.217Z,98951.66
2022-07-27T03:34:53.881Z,98943.84
2022-07-27T03:39:56.712Z,98939.22
2022-07-27T03:44:59.387Z,98941.91
2022-07-27T03:50:02.422Z,98946.56
2022-07-27T03:55:07.525Z,98936.84
2022-07-27T04:00:14.256Z,98942.44
2022-07-27T04:05:17.001Z,98951.72
2022-07-27T04:10:19.826Z,98952.72
2022-07-27T04:15:25.609Z,98959.59
2022-07-27T04:20:28.333Z,98961.03
2022-07-27T04:25:31.169Z,98960.88
2022-07-27T04:30:33.970Z,98964.88
2022-07-27T04:35:36.751Z,98948.53
2022-07-27T04:40:39.491Z,98966.63
2022-07-27T04:45:42.539Z,98954.94
2022-07-27T04:50:47.443Z,98976.28
2022-07-27T04:55:50.289Z,98969.94
2022-07-27T05:00:53.258Z,98969.09
2022-07-27T05:05:56.153Z,98973.06
2022-07-27T05:10:59.175Z,98959.31
2022-07-27T05:16:01.903Z,98979.81
2022-07-27T05:21:05.328Z,98970.44
2022-07-27T05:26:08.081Z,98959.41
2022-07-27T05:31:10.767Z,98959.78
2022-07-27T05:36:13.945Z,98969.56
2022-07-27T05:41:26.297Z,98973.88
2022-07-27T05:46:32.646Z,98971.28
2022-07-27T05:51:35.756Z,98967.06
2022-07-27T05:56:38.779Z,98956.25
2022-07-27T06:01:41.566Z,98966.84
2022-07-27T06:07:03.014Z,98969.66
2022-07-27T06:12:06.013Z,98965.56
2022-07-27T06:17:09.496Z,98963.22
2022-07-27T06:22:13.650Z,98956.31
2022-07-27T06:27:16.586Z,98953.09
2022-07-27T06:32:19.383Z,98958.03
2022-07-27T06:37:22.452Z,98963.19
2022-07-27T06:42:25.336Z,98973.63
2022-07-27T06:47:28.961Z,98972.56
2022-07-27T06:52:31.792Z,98974.47
2022-07-27T06:57:34.472Z,98976.09
2022-07-27T07:02:37.285Z,98978.94
2022-07-27T07:07:40.388Z,98985.53
2022-07-27T07:12:43.312Z,98986.91
2022-07-27T07:17:45.963Z,98973.38
2022-07-27T07:22:48.617Z,98976.81
2022-07-27T07:27:52.162Z,98972.63
2022-07-27T07:32:55.260Z,98982.03
2022-07-27T07:37:57.886Z,98987.19
2022-07-27T07:43:03.161Z,98982.81
2022-07-27T07:48:07.390Z,98976.00
2022-07-27T07:53:11.426Z,98985.31
2022-07-27T07:58:17.310Z,98983.09
2022-07-27T08:03:20.189Z,98988.69
2022-07-27T08:08:24.936Z,98985.06
2022-07-27T08:13:27.896Z,98976.97
2022-07-27T08:18:30.617Z,98981.16
2022-07-27T08:23:33.319Z,98979.72
2022-07-27T08:28:37.151Z,98958.50
2022-07-27T08:33:40.927Z,98961.66
2022-07-27T08:38:43.686Z,98970.06
2022-07-27T08:43:48.752Z,98967.41
2022-07-27T08:48:52.096Z,98964.81
2022-07-27T08:53:56.294Z,98966.97
2022-07-27T08:58:58.987Z,98959.66
2022-07-27T09:04:02.003Z,98962.94
2022-07-27T09:09:04.742Z,98968.09
2022-07-27T09:14:12.494Z,98967.06
2022-07-27T09:19:16.705Z,98974.94
2022-07-27T09:24:46.963Z,98971.78
2022-07-27T09:29:42.299Z,98967.72
2022-07-27T09:34:45.120Z,98975.91
2022-07-27T09:39:48.504Z,98963.28
2022-07-27T09:44:54.839Z,98965.88
2022-07-27T09:50:17.717Z,98944.94
2022-07-27T09:55:21.308Z,98961.97
2022-07-27T10:00:25.606Z,98960.25
2022-07-27T10:05:29.108Z,98959.06
2022-07-27T10:10:31.893Z,98954.75
2022-07-27T10:15:34.687Z,98964.69
2022-07-27T10:20:39.679Z,98968.19
2022-07-27T10:25:44.113Z,98961.31
2022-07-27T10:30:53.623Z,98971.59
2022-07-27T10:35:57.103Z,98973.44
2022-07-27T10:41:21.937Z,98971.03
2022-07-27T10:46:24.590Z,98977.69
2022-07-27T10:51:36.702Z,98965.28
2022-07-27T10:56:50.401Z,98967.81
2022-07-27T11:02:02.094Z,98983.81
2022-07-27T11:12:31.161Z,98965.28
2022-07-27T11:23:48.669Z,98973.31
2022-07-27T11:28:29.086Z,98961.47
2022-07-27T11:33:32.478Z,98964.69
2022-07-27T11:38:53.000Z,98965.47
2022-07-27T11:44:01.212Z,98950.09
2022-07-27T11:49:09.046Z,98943.72
2022-07-27T11:54:22.453Z,98943.94
2022-07-27T11:59:31.883Z,98934.75
2022-07-27T12:04:40.197Z,98927.09
2022-07-27T12:09:58.080Z,98927.63
2022-07-27T12:15:42.793Z,98922.09
2022-07-27T12:20:37.886Z,98917.00
2022-07-27T12:25:41.417Z,98902.41
2022-07-27T12:30:49.484Z,98912.19
2022-07-27T12:35:52.302Z,98924.06
2022-07-27T12:41:00.525Z,98934.78
2022-07-27T12:46:14.197Z,98938.88
2022-07-27T12:51:23.989Z,98919.31
2022-07-27T12:56:27.408Z,98925.47
2022-07-27T13:01:30.933Z,98916.34
2022-07-27T13:06:33.863Z,98899.38
2022-07-27T13:11:36.501Z,98920.09
2022-07-27T13:16:39.334Z,98921.03
2022-07-27T13:21:42.079Z,98912.13
2022-07-27T13:26:44.678Z,98907.72
2022-07-27T13:31:52.440Z,98915.19
2022-07-27T13:36:57.735Z,98916.97
2022-07-27T13:42:00.552Z,98913.09
2022-07-27T13:47:03.839Z,98904.47
2022-07-27T13:52:06.985Z,98898.66
2022-07-27T13:57:09.665Z,98898.44
2022-07-27T14:02:12.404Z,98887.81
2022-07-27T14:07:15.676Z,98890.78
2022-07-27T14:12:18.323Z,98892.72
2022-07-27T14:17:21.092Z,98892.19
2022-07-27T14:22:23.750Z,98897.25
2022-07-27T14:27:26.390Z,98912.88
2022-07-27T14:32:38.905Z,98917.06
2022-07-27T14:37:41.637Z,98896.13
2022-07-27T14:42:44.360Z,98913.06
2022-07-27T14:47:47.797Z,98917.44
2022-07-27T14:52:50.910Z,98902.91
2022-07-27T14:57:53.969Z,98916.13
2022-07-27T15:02:56.667Z,98904.56
2022-07-27T15:08:00.490Z,98920.09
2022-07-27T15:13:05.104Z,98918.56
2022-07-27T15:18:08.108Z,98929.09
2022-07-27T15:23:10.956Z,98946.03
2022-07-27T15:28:13.652Z,98940.84
2022-07-27T15:33:16.466Z,98942.03
2022-07-27T15:38:19.344Z,98940.41
2022-07-27T15:43:22.040Z,98923.66
2022-07-27T15:48:26.260Z,98920.63
2022-07-27T15:53:29.934Z,98932.63
2022-07-27T15:58:32.665Z,98938.03
2022-07-27T16:03:35.470Z,98946.28
2022-07-27T16:08:39.169Z,98930.63
2022-07-27T16:13:42.288Z,98933.84
2022-07-27T16:18:46.845Z,98918.72
2022-07-27T16:23:50.951Z,98927.84
2022-07-27T16:28:57.101Z,98921.41
2022-07-27T16:33:59.956Z,98912.94
2022-07-27T16:39:02.744Z,98909.28
2022-07-27T16:44:05.738Z,98911.00
2022-07-27T16:49:09.148Z,98916.94
2022-07-27T16:54:15.790Z,98925.63
2022-07-27T16:59:20.846Z,98940.44
2022-07-27T17:04:24.845Z,98948.25
2022-07-27T17:09:28.710Z,98943.88
2022-07-27T17:14:31.455Z,98935.75
2022-07-27T17:19:35.294Z,98932.44
2022-07-27T17:24:38.412Z,98948.19
2022-07-27T17:29:41.457Z,98976.72
2022-07-27T17:34:47.678Z,98997.59
2022-07-27T17:39:50.671Z,99006.28
2022-07-27T17:44:53.760Z,99001.63
2022-07-27T17:49:58.080Z,99012.56
2022-07-27T17:55:01.860Z,98990.47
2022-07-27T18:00:07.788Z,99009.47
2022-07-27T18:05:12.886Z,98990.63
2022-07-27T18:10:16.852Z,99013.56
2022-07-27T18:15:38.264Z,98994.69
2022-07-27T18:20:41.696Z,99013.16
2022-07-27T18:25:45.254Z,99018.34
2022-07-27T18:30:50.128Z,99030.31
2022-07-27T18:35:54.055Z,99059.03
2022-07-27T18:40:59.954Z,99073.13
2022-07-27T18:46:03.177Z,99083.03
2022-07-27T18:51:05.910Z,99091.81
2022-07-27T18:56:08.576Z,99070.66
2022-07-27T19:01:11.649Z,99087.13
2022-07-27T19:06:17.856Z,99079.50
2022-07-27T19:11:21.780Z,99081.41
2022-07-27T19:16:25.579Z,99083.19
2022-07-27T19:21:28.469Z,99084.22
2022-07-27T19:26:31.228Z,99082.50
2022-07-27T19:31:34.404Z,99080.66
2022-07-27T19:36:37.449Z,99081.00
2022-07-27T19:41:40.356Z,99079.00
2022-07-27T19:46:43.489Z,99077.88
2022-07-27T19:51:46.274Z,99076.03
2022-07-27T19:56:49.016Z,99090.16
2022-07-27T20:01:51.791Z,99068.97
2022-07-27T20:06:54.536Z,99076.94
2022-07-27T20:12:00.461Z,99082.94
2022-07-27T20:17:04.296Z,99084.44
2022-07-27T20:22:07.097Z,99073.06
2022-07-27T20:27:10.307Z,99090.56
2022-07-27T20:32:14.777Z,99097.00
2022-07-27T20:37:17.490Z,99102.00
2022-07-27T20:42:20.183Z,99096.59
2022-07-27T20:47:22.893Z,99105.66
2022-07-27T20:52:26.116Z,99106.31
2022-07-27T20:57:29.063Z,99088.88
2022-07-27T21:02:32.305Z,99101.13
2022-07-27T21:07:35.061Z,99103.56
2022-07-27T21:12:37.830Z,99092.25
2022-07-27T21:17:40.931Z,99109.56
2022-07-27T21:22:43.688Z,99096.97
2022-07-27T21:27:46.489Z,99102.13
2022-07-27T21:32:50.926Z,99108.84
2022-07-27T21:37:53.566Z,99094.50
2022-07-27T21:42:56.312Z,99083.91
2022-07-27T21:47:58.966Z,99093.28
2022-07-27T21:53:01.582Z,99091.06
2022-07-27T21:58:04.870Z,99091.75
2022-07-27T22:03:08.699Z,99087.41
2022-07-27T22:08:11.441Z,99087.66
2022-07-27T22:13:14.121Z,99085.97
2022-07-27T22:18:17.786Z,99096.19
2022-07-27T22:23:20.623Z,99097.19
2022-07-27T22:28:25.457Z,99078.13
2022-07-27T22:33:29.235Z,99087.44
2022-07-27T22:38:31.921Z,99087.13
2022-07-27T22:43:34.698Z,99092.50
2022-07-27T22:48:37.410Z,99091.75
2022-07-27T22:53:40.155Z,99089.75
2022-07-27T22:58:42.873Z,99072.47
2022-07-27T23:03:45.470Z,99073.47
2022-07-27T23:08:48.202Z,99086.69
2022-07-27T23:13:50.917Z,99083.03
2022-07-27T23:18:53.614Z,99082.47
2022-07-27T23:23:56.745Z,99097.59
2022-07-27T23:29:01.858Z,99102.09
2022-07-27T23:34:04.519Z,99104.66
2022-07-27T23:39:07.322Z,99103.72
2022-07-27T23:44:10.456Z,99107.00
2022-07-27T23:49:13.667Z,99105.22
2022-07-27T23:54:16.595Z,99108.03
2022-07-27T23:59:19.802Z,99116.31
